createdAt,value
2018-07-15T00:00:03.015Z,1008.28
2018-07-15T00:01:02.942Z,1008.26
2018-07-15T00:02:03.015Z,1008.25
2018-07-15T00:03:02.999Z,1008.25
2018-07-15T00:04:02.981Z,1008.25
2018-07-15T00:05:02.984Z,1008.26
2018-07-15T00:06:02.939Z,1008.26
2018-07-15T00:07:03.026Z,1008.27
2018-07-15T00:08:03.004Z,1008.29
2018-07-15T00:09:03.023Z,1008.29
2018-07-15T00:10:02.994Z,1008.31
2018-07-15T00:11:03.009Z,1008.30
2018-07-15T00:12:03.031Z,1008.28
2018-07-15T00:13:03.031Z,1008.29
2018-07-15T00:14:02.945Z,1008.27
2018-07-15T00:15:03.019Z,1008.29
2018-07-15T00:16:02.950Z,1008.30
2018-07-15T00:17:03.070Z,1008.29
2018-07-15T00:18:02.994Z,1008.30
2018-07-15T00:19:03.025Z,1008.33
2018-07-15T00:20:03.024Z,1008.31
2018-07-15T00:21:02.950Z,1008.32
2018-07-15T00:22:02.938Z,1008.33
2018-07-15T00:23:03.026Z,1008.34
2018-07-15T00:24:03.023Z,1008.34
2018-07-15T00:25:02.989Z,1008.33
2018-07-15T00:26:02.900Z,1008.30
2018-07-15T00:27:03.017Z,1008.28
2018-07-15T00:28:02.990Z,1008.30
2018-07-15T00:29:02.927Z,1008.32
2018-07-15T00:30:02.927Z,1008.28
2018-07-15T00:31:03.023Z,1008.26
2018-07-15T00:32:02.996Z,1008.27
2018-07-15T00:33:03.015Z,1008.28
2018-07-15T00:34:02.986Z,1008.27
2018-07-15T00:35:02.975Z,1008.29
2018-07-15T00:36:03.041Z,1008.26
2018-07-15T00:37:02.928Z,1008.27
2018-07-15T00:38:02.978Z,1008.27
2018-07-15T00:39:03.044Z,1008.25
2018-07-15T00:40:02.972Z,1008.21
2018-07-15T00:41:03.048Z,1008.26
2018-07-15T00:42:02.933Z,1008.23
2018-07-15T00:43:03.050Z,1008.23
2018-07-15T00:44:03.047Z,1008.23
2018-07-15T00:45:03.011Z,1008.22
2018-07-15T00:46:02.965Z,1008.21
2018-07-15T00:47:03.030Z,1008.23
2018-07-15T00:48:03.048Z,1008.25
2018-07-15T00:49:03.012Z,1008.21
2018-07-15T00:50:03.069Z,1008.25
2018-07-15T00:51:03.104Z,1008.23
2018-07-15T00:52:03.049Z,1008.21
2018-07-15T00:53:02.954Z,1008.24
2018-07-15T00:54:02.991Z,1008.24
2018-07-15T00:55:03.012Z,1008.22
2018-07-15T00:56:03.055Z,1008.26
2018-07-15T00:57:02.973Z,1008.27
2018-07-15T00:58:03.016Z,1008.23
2018-07-15T00:59:02.954Z,1008.27
2018-07-15T01:00:02.979Z,1008.23
2018-07-15T01:01:03.081Z,1008.20
2018-07-15T01:02:03.060Z,1008.21
2018-07-15T01:03:03.077Z,1008.21
2018-07-15T01:04:03.046Z,1008.20
2018-07-15T01:05:02.990Z,1008.20
2018-07-15T01:06:02.927Z,1008.16
2018-07-15T01:07:02.936Z,1008.20
2018-07-15T01:08:03.038Z,1008.20
2018-07-15T01:09:03.044Z,1008.22
2018-07-15T01:10:03.026Z,1008.20
2018-07-15T01:11:02.959Z,1008.23
2018-07-15T01:12:02.997Z,1008.25
2018-07-15T01:13:03.035Z,1008.24
2018-07-15T01:14:03.100Z,1008.16
2018-07-15T01:15:03.050Z,1008.19
2018-07-15T01:17:02.971Z,1008.16
2018-07-15T01:18:02.967Z,1008.20
2018-07-15T01:19:03.100Z,1008.14
2018-07-15T01:20:03.052Z,1008.15
2018-07-15T01:21:02.990Z,1008.18
2018-07-15T01:22:03.092Z,1008.17
2018-07-15T01:23:03.079Z,1008.21
2018-07-15T01:24:03.074Z,1008.20
2018-07-15T01:25:03.092Z,1008.20
2018-07-15T01:26:03.097Z,1008.15
2018-07-15T01:27:03.081Z,1008.19
2018-07-15T01:28:03.098Z,1008.15
2018-07-15T01:29:02.980Z,1008.17
2018-07-15T01:30:02.980Z,1008.17
2018-07-15T01:31:03.048Z,1008.21
2018-07-15T01:32:03.042Z,1008.17
2018-07-15T01:33:03.055Z,1008.19
2018-07-15T01:34:03.089Z,1008.20
2018-07-15T01:35:03.025Z,1008.18
2018-07-15T01:36:03.090Z,1008.18
2018-07-15T01:37:03.023Z,1008.18
2018-07-15T01:38:02.968Z,1008.19
2018-07-15T01:39:03.019Z,1008.18
2018-07-15T01:40:03.084Z,1008.17
2018-07-15T01:41:03.021Z,1008.19
2018-07-15T01:42:03.083Z,1008.14
2018-07-15T01:43:03.018Z,1008.14
2018-07-15T01:44:03.113Z,1008.17
2018-07-15T01:45:03.061Z,1008.15
2018-07-15T01:46:03.029Z,1008.13
2018-07-15T01:47:03.064Z,1008.15
2018-07-15T01:48:03.117Z,1008.11
2018-07-15T01:49:02.992Z,1008.11
2018-07-15T01:50:03.125Z,1008.12
2018-07-15T01:51:03.161Z,1008.10
2018-07-15T01:52:03.035Z,1008.11
2018-07-15T01:53:03.065Z,1008.11
2018-07-15T01:54:03.055Z,1008.10
2018-07-15T01:55:03.063Z,1008.10
2018-07-15T01:56:03.044Z,1008.06
2018-07-15T01:57:02.995Z,1008.07
2018-07-15T01:58:03.002Z,1008.06
2018-07-15T01:59:03.057Z,1008.06
2018-07-15T02:00:03.125Z,1008.08
2018-07-15T02:01:03.132Z,1008.10
2018-07-15T02:02:03.118Z,1008.06
2018-07-15T02:03:03.156Z,1008.05
2018-07-15T02:04:03.034Z,1008.02
2018-07-15T02:05:03.108Z,1008.06
2018-07-15T02:06:03.036Z,1008.05
2018-07-15T02:07:03.040Z,1008.06
2018-07-15T02:08:03.038Z,1008.02
2018-07-15T02:09:03.101Z,1008.04
2018-07-15T02:10:03.067Z,1007.98
2018-07-15T02:11:03.040Z,1008.04
2018-07-15T02:12:03.035Z,1008.04
2018-07-15T02:13:03.039Z,1008.04
2018-07-15T02:14:03.096Z,1008.07
2018-07-15T02:15:03.032Z,1008.03
2018-07-15T02:16:03.105Z,1008.05
2018-07-15T02:17:03.101Z,1008.03
2018-07-15T02:18:03.099Z,1008.02
2018-07-15T02:19:03.106Z,1008.01
2018-07-15T02:20:03.031Z,1008.01
2018-07-15T02:21:03.110Z,1008.03
2018-07-15T02:22:03.108Z,1008.04
2018-07-15T02:23:03.031Z,1007.98
2018-07-15T02:24:03.038Z,1007.98
2018-07-15T02:25:03.113Z,1007.98
2018-07-15T02:26:03.069Z,1007.99
2018-07-15T02:27:03.151Z,1008.00
2018-07-15T02:28:03.101Z,1007.99
2018-07-15T02:29:03.023Z,1007.98
2018-07-15T02:30:03.024Z,1007.97
2018-07-15T02:31:03.119Z,1007.96
2018-07-15T02:32:03.089Z,1007.97
2018-07-15T02:33:03.046Z,1007.98
2018-07-15T02:34:03.079Z,1007.94
2018-07-15T02:35:03.116Z,1007.97
2018-07-15T02:36:03.027Z,1007.94
2018-07-15T02:37:03.027Z,1007.93
2018-07-15T02:38:03.116Z,1007.92
2018-07-15T02:39:03.143Z,1007.94
2018-07-15T02:40:03.115Z,1007.95
2018-07-15T02:41:03.117Z,1007.94
2018-07-15T02:42:03.084Z,1007.95
2018-07-15T02:43:03.030Z,1007.95
2018-07-15T02:44:03.119Z,1007.95
2018-07-15T02:45:03.067Z,1007.89
2018-07-15T02:46:03.131Z,1007.90
2018-07-15T02:47:03.061Z,1007.88
2018-07-15T02:48:03.137Z,1007.90
2018-07-15T02:49:03.132Z,1007.95
2018-07-15T02:50:03.069Z,1007.98
2018-07-15T02:51:03.132Z,1007.98
2018-07-15T02:52:03.133Z,1008.02
2018-07-15T02:53:03.070Z,1008.00
2018-07-15T02:54:03.137Z,1008.03
2018-07-15T02:55:03.096Z,1007.98
2018-07-15T02:56:03.074Z,1008.01
2018-07-15T02:57:03.077Z,1007.96
2018-07-15T02:58:03.150Z,1007.93
2018-07-15T02:59:03.147Z,1007.92
2018-07-15T03:00:03.268Z,1007.90
2018-07-15T03:01:03.138Z,1007.89
2018-07-15T03:02:03.107Z,1007.88
2018-07-15T03:03:03.062Z,1007.87
2018-07-15T03:04:03.159Z,1007.91
2018-07-15T03:05:03.069Z,1007.89
2018-07-15T03:06:03.048Z,1007.89
2018-07-15T03:07:03.137Z,1007.87
2018-07-15T03:08:03.133Z,1007.87
2018-07-15T03:09:03.144Z,1007.87
2018-07-15T03:10:03.133Z,1007.85
2018-07-15T03:11:03.151Z,1007.88
2018-07-15T03:12:03.142Z,1007.85
2018-07-15T03:13:03.090Z,1007.86
2018-07-15T03:14:03.071Z,1007.86
2018-07-15T03:15:03.171Z,1007.88
2018-07-15T03:16:03.182Z,1007.84
2018-07-15T03:17:03.166Z,1007.86
2018-07-15T03:18:03.114Z,1007.84
2018-07-15T03:19:03.181Z,1007.85
2018-07-15T03:20:03.152Z,1007.86
2018-07-15T03:21:03.118Z,1007.84
2018-07-15T03:22:03.119Z,1007.88
2018-07-15T03:23:03.090Z,1007.89
2018-07-15T03:24:03.113Z,1007.90
2018-07-15T03:25:03.072Z,1007.91
2018-07-15T03:26:03.146Z,1007.91
2018-07-15T03:27:03.077Z,1007.87
2018-07-15T03:28:03.065Z,1007.86
2018-07-15T03:29:03.078Z,1007.88
2018-07-15T03:30:03.154Z,1007.87
2018-07-15T03:31:03.152Z,1007.90
2018-07-15T03:32:03.079Z,1007.86
2018-07-15T03:33:03.033Z,1007.83
2018-07-15T03:34:03.161Z,1007.88
2018-07-15T03:35:03.097Z,1007.83
2018-07-15T03:36:03.047Z,1007.81
2018-07-15T03:37:03.093Z,1007.81
2018-07-15T03:38:03.195Z,1007.78
2018-07-15T03:39:03.116Z,1007.81
2018-07-15T03:40:03.122Z,1007.81
2018-07-15T03:41:03.126Z,1007.77
2018-07-15T03:42:03.100Z,1007.77
2018-07-15T03:43:03.165Z,1007.79
2018-07-15T03:44:03.167Z,1007.74
2018-07-15T03:45:03.104Z,1007.74
2018-07-15T03:46:03.167Z,1007.73
2018-07-15T03:47:03.100Z,1007.73
2018-07-15T03:48:03.105Z,1007.71
2018-07-15T03:49:03.104Z,1007.71
2018-07-15T03:50:03.176Z,1007.73
2018-07-15T03:51:03.063Z,1007.67
2018-07-15T03:52:03.269Z,1007.70
2018-07-15T03:53:03.178Z,1007.69
2018-07-15T03:54:03.172Z,1007.66
2018-07-15T03:55:03.136Z,1007.70
2018-07-15T03:56:03.188Z,1007.68
2018-07-15T03:57:03.095Z,1007.67
2018-07-15T03:58:03.161Z,1007.67
2018-07-15T03:59:03.178Z,1007.69
2018-07-15T04:00:03.159Z,1007.67
2018-07-15T04:01:03.183Z,1007.66
2018-07-15T04:02:03.200Z,1007.64
2018-07-15T04:03:03.209Z,1007.63
2018-07-15T04:04:03.207Z,1007.70
2018-07-15T04:05:03.073Z,1007.65
2018-07-15T04:06:03.115Z,1007.71
2018-07-15T04:07:03.052Z,1007.66
2018-07-15T04:08:03.080Z,1007.66
2018-07-15T04:09:03.073Z,1007.63
2018-07-15T04:10:03.161Z,1007.63
2018-07-15T04:11:03.093Z,1007.65
2018-07-15T04:12:03.072Z,1007.64
2018-07-15T04:13:03.160Z,1007.60
2018-07-15T04:14:03.080Z,1007.60
2018-07-15T04:15:03.092Z,1007.59
2018-07-15T04:16:03.201Z,1007.62
2018-07-15T04:17:03.219Z,1007.62
2018-07-15T04:18:03.111Z,1007.63
2018-07-15T04:19:03.098Z,1007.63
2018-07-15T04:20:03.162Z,1007.66
2018-07-15T04:21:03.217Z,1007.69
2018-07-15T04:22:03.192Z,1007.72
2018-07-15T04:23:03.206Z,1007.69
2018-07-15T04:24:03.213Z,1007.69
2018-07-15T04:25:03.062Z,1007.71
2018-07-15T04:26:03.101Z,1007.73
2018-07-15T04:27:03.175Z,1007.76
2018-07-15T04:28:03.197Z,1007.70
2018-07-15T04:29:03.105Z,1007.76
2018-07-15T04:30:03.065Z,1007.72
2018-07-15T04:31:03.196Z,1007.69
2018-07-15T04:32:03.181Z,1007.69
2018-07-15T04:33:03.154Z,1007.68
2018-07-15T04:34:03.189Z,1007.67
2018-07-15T04:35:03.239Z,1007.67
2018-07-15T04:36:03.109Z,1007.68
2018-07-15T04:37:03.218Z,1007.64
2018-07-15T04:38:03.400Z,1007.64
2018-07-15T04:39:03.161Z,1007.62
2018-07-15T04:40:03.129Z,1007.61
2018-07-15T04:41:03.159Z,1007.61
2018-07-15T04:42:03.205Z,1007.59
2018-07-15T04:43:03.225Z,1007.60
2018-07-15T04:44:03.171Z,1007.61
2018-07-15T04:45:03.144Z,1007.58
2018-07-15T04:46:03.075Z,1007.57
2018-07-15T04:47:03.076Z,1007.58
2018-07-15T04:48:03.120Z,1007.58
2018-07-15T04:49:03.145Z,1007.58
2018-07-15T04:50:03.206Z,1007.60
2018-07-15T04:51:03.202Z,1007.60
2018-07-15T04:52:03.204Z,1007.59
2018-07-15T04:53:03.217Z,1007.63
2018-07-15T04:54:03.201Z,1007.63
2018-07-15T04:55:03.211Z,1007.63
2018-07-15T04:56:03.454Z,1007.61
2018-07-15T04:57:03.197Z,1007.60
2018-07-15T04:58:03.186Z,1007.60
2018-07-15T04:59:03.226Z,1007.66
2018-07-15T05:00:03.122Z,1007.64
2018-07-15T05:01:03.233Z,1007.65
2018-07-15T05:02:03.180Z,1007.62
2018-07-15T05:03:03.180Z,1007.66
2018-07-15T05:04:03.178Z,1007.67
2018-07-15T05:05:03.184Z,1007.61
2018-07-15T05:06:03.220Z,1007.61
2018-07-15T05:07:03.244Z,1007.60
2018-07-15T05:08:03.220Z,1007.62
2018-07-15T05:09:03.227Z,1007.58
2018-07-15T05:10:03.222Z,1007.57
2018-07-15T05:11:03.158Z,1007.62
2018-07-15T05:12:03.225Z,1007.61
2018-07-15T05:13:03.160Z,1007.61
2018-07-15T05:14:03.130Z,1007.60
2018-07-15T05:15:03.203Z,1007.63
2018-07-15T05:16:03.138Z,1007.65
2018-07-15T05:17:03.259Z,1007.64
2018-07-15T05:18:03.255Z,1007.66
2018-07-15T05:19:03.230Z,1007.67
2018-07-15T05:20:03.230Z,1007.64
2018-07-15T05:21:03.204Z,1007.63
2018-07-15T05:22:03.185Z,1007.63
2018-07-15T05:23:03.138Z,1007.62
2018-07-15T05:24:03.251Z,1007.64
2018-07-15T05:25:03.224Z,1007.60
2018-07-15T05:26:03.274Z,1007.62
2018-07-15T05:27:03.211Z,1007.62
2018-07-15T05:28:03.201Z,1007.62
2018-07-15T05:29:03.205Z,1007.62
2018-07-15T05:30:03.217Z,1007.62
2018-07-15T05:31:03.161Z,1007.62
2018-07-15T05:32:03.239Z,1007.64
2018-07-15T05:33:03.181Z,1007.64
2018-07-15T05:34:03.240Z,1007.62
2018-07-15T05:35:03.278Z,1007.62
2018-07-15T05:36:03.239Z,1007.61
2018-07-15T05:37:03.180Z,1007.62
2018-07-15T05:38:03.250Z,1007.59
2018-07-15T05:39:03.178Z,1007.63
2018-07-15T05:40:03.243Z,1007.66
2018-07-15T05:41:03.182Z,1007.66
2018-07-15T05:42:03.245Z,1007.63
2018-07-15T05:43:03.182Z,1007.65
2018-07-15T05:44:03.181Z,1007.68
2018-07-15T05:45:03.247Z,1007.67
2018-07-15T05:46:03.187Z,1007.66
2018-07-15T05:47:03.249Z,1007.70
2018-07-15T05:48:03.187Z,1007.74
2018-07-15T05:49:03.187Z,1007.74
2018-07-15T05:50:03.186Z,1007.72
2018-07-15T05:51:03.188Z,1007.72
2018-07-15T05:52:03.186Z,1007.75
2018-07-15T05:53:03.255Z,1007.74
2018-07-15T05:54:03.252Z,1007.70
2018-07-15T05:55:03.289Z,1007.75
2018-07-15T05:56:03.193Z,1007.71
2018-07-15T05:57:03.288Z,1007.74
2018-07-15T05:58:03.264Z,1007.75
2018-07-15T05:59:03.281Z,1007.74
2018-07-15T06:00:03.229Z,1007.77
2018-07-15T06:01:03.203Z,1007.76
2018-07-15T06:02:03.222Z,1007.73
2018-07-15T06:03:03.221Z,1007.74
2018-07-15T06:04:03.286Z,1007.72
2018-07-15T06:05:03.262Z,1007.72
2018-07-15T06:06:03.265Z,1007.74
2018-07-15T06:07:03.285Z,1007.71
2018-07-15T06:08:03.259Z,1007.71
2018-07-15T06:09:03.245Z,1007.73
2018-07-15T06:10:03.294Z,1007.78
2018-07-15T06:11:03.262Z,1007.77
2018-07-15T06:12:03.292Z,1007.78
2018-07-15T06:13:03.283Z,1007.80
2018-07-15T06:14:03.266Z,1007.76
2018-07-15T06:15:03.271Z,1007.77
2018-07-15T06:16:03.267Z,1007.77
2018-07-15T06:17:03.292Z,1007.77
2018-07-15T06:18:03.266Z,1007.79
2018-07-15T06:19:03.205Z,1007.76
2018-07-15T06:20:03.293Z,1007.79
2018-07-15T06:21:03.204Z,1007.76
2018-07-15T06:22:03.214Z,1007.77
2018-07-15T06:23:03.214Z,1007.77
2018-07-15T06:24:03.212Z,1007.77
2018-07-15T06:25:03.306Z,1007.77
2018-07-15T06:26:03.238Z,1007.76
2018-07-15T06:27:03.305Z,1007.74
2018-07-15T06:28:03.327Z,1007.76
2018-07-15T06:29:03.284Z,1007.72
2018-07-15T06:30:03.246Z,1007.72
2018-07-15T06:31:03.355Z,1007.72
2018-07-15T06:32:03.305Z,1007.69
2018-07-15T06:33:03.318Z,1007.76
2018-07-15T06:34:03.203Z,1007.76
2018-07-15T06:35:03.147Z,1007.70
2018-07-15T06:36:03.182Z,1007.72
2018-07-15T06:37:03.141Z,1007.71
2018-07-15T06:38:03.169Z,1007.69
2018-07-15T06:39:03.187Z,1007.71
2018-07-15T06:40:03.265Z,1007.72
2018-07-15T06:41:03.235Z,1007.70
2018-07-15T06:42:03.184Z,1007.74
2018-07-15T06:43:03.235Z,1007.71
2018-07-15T06:44:03.191Z,1007.73
2018-07-15T06:45:03.226Z,1007.69
2018-07-15T06:46:03.293Z,1007.72
2018-07-15T06:47:03.224Z,1007.72
2018-07-15T06:48:03.226Z,1007.71
2018-07-15T06:49:03.291Z,1007.69
2018-07-15T06:50:03.224Z,1007.68
2018-07-15T06:51:03.362Z,1007.70
2018-07-15T06:52:03.302Z,1007.70
2018-07-15T06:53:03.291Z,1007.68
2018-07-15T06:54:03.316Z,1007.69
2018-07-15T06:55:03.291Z,1007.66
2018-07-15T06:56:03.339Z,1007.68
2018-07-15T06:57:03.326Z,1007.63
2018-07-15T06:58:03.258Z,1007.65
2018-07-15T06:59:03.321Z,1007.65
2018-07-15T07:00:03.299Z,1007.65
2018-07-15T07:01:03.275Z,1007.62
2018-07-15T07:02:03.305Z,1007.69
2018-07-15T07:03:03.325Z,1007.64
2018-07-15T07:04:03.205Z,1007.66
2018-07-15T07:05:03.213Z,1007.67
2018-07-15T07:06:03.324Z,1007.66
2018-07-15T07:07:03.264Z,1007.64
2018-07-15T07:08:03.279Z,1007.68
2018-07-15T07:09:03.255Z,1007.66
2018-07-15T07:10:03.331Z,1007.66
2018-07-15T07:11:03.337Z,1007.65
2018-07-15T07:12:03.322Z,1007.64
2018-07-15T07:13:03.247Z,1007.65
2018-07-15T07:14:03.351Z,1007.69
2018-07-15T07:15:03.296Z,1007.67
2018-07-15T07:16:03.218Z,1007.68
2018-07-15T07:17:03.198Z,1007.67
2018-07-15T07:18:03.303Z,1007.67
2018-07-15T07:19:03.195Z,1007.68
2018-07-15T07:20:03.246Z,1007.67
2018-07-15T07:21:03.249Z,1007.72
2018-07-15T07:22:03.179Z,1007.67
2018-07-15T07:23:03.298Z,1007.70
2018-07-15T07:24:03.316Z,1007.69
2018-07-15T07:25:03.340Z,1007.69
2018-07-15T07:26:03.278Z,1007.66
2018-07-15T07:27:03.334Z,1007.68
2018-07-15T07:29:03.296Z,1007.65
2018-07-15T07:30:03.292Z,1007.65
2018-07-15T07:31:03.334Z,1007.65
2018-07-15T07:32:03.297Z,1007.61
2018-07-15T07:33:03.290Z,1007.60
2018-07-15T07:34:03.293Z,1007.62
2018-07-15T07:35:03.253Z,1007.59
2018-07-15T07:36:03.320Z,1007.60
2018-07-15T07:37:03.261Z,1007.59
2018-07-15T07:38:03.330Z,1007.62
2018-07-15T07:39:03.263Z,1007.61
2018-07-15T07:40:03.326Z,1007.62
2018-07-15T07:41:03.278Z,1007.58
2018-07-15T07:42:03.291Z,1007.60
2018-07-15T07:43:03.321Z,1007.61
2018-07-15T07:44:03.271Z,1007.58
2018-07-15T07:45:03.287Z,1007.58
2018-07-15T07:46:03.308Z,1007.57
2018-07-15T07:47:03.395Z,1007.56
2018-07-15T07:48:03.252Z,1007.59
2018-07-15T07:49:03.299Z,1007.61
2018-07-15T07:50:03.356Z,1007.60
2018-07-15T07:51:03.359Z,1007.60
2018-07-15T07:52:03.336Z,1007.59
2018-07-15T07:53:03.297Z,1007.59
2018-07-15T07:54:03.296Z,1007.56
2018-07-15T07:55:03.339Z,1007.58
2018-07-15T07:56:03.272Z,1007.57
2018-07-15T07:57:03.316Z,1007.57
2018-07-15T07:58:03.272Z,1007.56
2018-07-15T07:59:03.337Z,1007.62
2018-07-15T08:00:03.302Z,1007.59
2018-07-15T08:01:03.339Z,1007.60
2018-07-15T08:02:03.370Z,1007.55
2018-07-15T08:03:03.275Z,1007.59
2018-07-15T08:04:03.346Z,1007.53
2018-07-15T08:05:03.320Z,1007.53
2018-07-15T08:06:03.380Z,1007.52
2018-07-15T08:07:03.285Z,1007.50
2018-07-15T08:08:03.344Z,1007.47
2018-07-15T08:09:03.365Z,1007.48
2018-07-15T08:10:03.267Z,1007.51
2018-07-15T08:11:03.306Z,1007.47
2018-07-15T08:12:03.362Z,1007.45
2018-07-15T08:13:03.343Z,1007.44
2018-07-15T08:14:03.316Z,1007.46
2018-07-15T08:15:03.263Z,1007.49
2018-07-15T08:16:03.306Z,1007.53
2018-07-15T08:17:03.325Z,1007.53
2018-07-15T08:18:03.304Z,1007.53
2018-07-15T08:19:03.378Z,1007.51
2018-07-15T08:20:03.359Z,1007.52
2018-07-15T08:21:03.335Z,1007.48
2018-07-15T08:22:03.315Z,1007.51
2018-07-15T08:23:03.263Z,1007.53
2018-07-15T08:24:03.305Z,1007.50
2018-07-15T08:25:03.329Z,1007.53
2018-07-15T08:26:03.280Z,1007.46
2018-07-15T08:27:03.219Z,1007.50
2018-07-15T08:28:03.352Z,1007.49
2018-07-15T08:29:03.347Z,1007.49
2018-07-15T08:30:03.334Z,1007.46
2018-07-15T08:31:03.336Z,1007.49
2018-07-15T08:32:03.229Z,1007.49
2018-07-15T08:33:03.253Z,1007.47
2018-07-15T08:34:03.295Z,1007.44
2018-07-15T08:35:03.297Z,1007.43
2018-07-15T08:36:03.301Z,1007.45
2018-07-15T08:37:03.365Z,1007.43
2018-07-15T08:38:03.298Z,1007.39
2018-07-15T08:39:03.367Z,1007.41
2018-07-15T08:40:03.367Z,1007.42
2018-07-15T08:41:03.299Z,1007.35
2018-07-15T08:42:03.367Z,1007.37
2018-07-15T08:43:03.332Z,1007.35
2018-07-15T08:44:03.346Z,1007.38
2018-07-15T08:45:03.302Z,1007.37
2018-07-15T08:46:03.410Z,1007.35
2018-07-15T08:47:03.376Z,1007.38
2018-07-15T08:48:03.371Z,1007.38
2018-07-15T08:49:03.346Z,1007.38
2018-07-15T08:50:03.371Z,1007.36
2018-07-15T08:51:03.304Z,1007.34
2018-07-15T08:52:03.373Z,1007.36
2018-07-15T08:53:03.316Z,1007.38
2018-07-15T08:54:03.391Z,1007.36
2018-07-15T08:55:03.308Z,1007.34
2018-07-15T08:56:03.379Z,1007.36
2018-07-15T08:57:03.310Z,1007.34
2018-07-15T08:58:03.384Z,1007.33
2018-07-15T08:59:03.314Z,1007.35
2018-07-15T09:00:03.313Z,1007.35
2018-07-15T09:01:03.366Z,1007.34
2018-07-15T09:02:03.313Z,1007.34
2018-07-15T09:03:03.334Z,1007.33
2018-07-15T09:04:03.311Z,1007.35
2018-07-15T09:05:03.348Z,1007.28
2018-07-15T09:06:03.295Z,1007.33
2018-07-15T09:07:03.353Z,1007.29
2018-07-15T09:08:03.346Z,1007.28
2018-07-15T09:09:03.358Z,1007.30
2018-07-15T09:10:03.385Z,1007.28
2018-07-15T09:11:03.281Z,1007.24
2018-07-15T09:12:03.353Z,1007.26
2018-07-15T09:13:03.348Z,1007.24
2018-07-15T09:14:03.344Z,1007.24
2018-07-15T09:15:03.383Z,1007.19
2018-07-15T09:16:03.261Z,1007.19
2018-07-15T09:17:03.387Z,1007.18
2018-07-15T09:18:03.260Z,1007.19
2018-07-15T09:19:03.325Z,1007.17
2018-07-15T09:20:03.299Z,1007.19
2018-07-15T09:21:03.384Z,1007.15
2018-07-15T09:22:03.391Z,1007.15
2018-07-15T09:23:03.324Z,1007.14
2018-07-15T09:24:03.388Z,1007.13
2018-07-15T09:25:03.353Z,1007.15
2018-07-15T09:26:03.302Z,1007.10
2018-07-15T09:27:03.318Z,1007.18
2018-07-15T09:28:03.334Z,1007.12
2018-07-15T09:29:03.388Z,1007.13
2018-07-15T09:30:03.288Z,1007.05
2018-07-15T09:31:03.389Z,1007.06
2018-07-15T09:32:03.307Z,1007.09
2018-07-15T09:33:03.313Z,1007.09
2018-07-15T09:34:03.354Z,1007.08
2018-07-15T09:35:03.393Z,1007.07
2018-07-15T09:36:03.310Z,1007.10
2018-07-15T09:37:03.394Z,1007.12
2018-07-15T09:38:03.354Z,1007.05
2018-07-15T09:39:03.273Z,1007.07
2018-07-15T09:40:03.399Z,1007.11
2018-07-15T09:41:03.337Z,1007.11
2018-07-15T09:42:03.396Z,1007.13
2018-07-15T09:43:03.289Z,1007.11
2018-07-15T09:44:03.333Z,1007.12
2018-07-15T09:45:03.365Z,1007.08
2018-07-15T09:46:03.268Z,1007.09
2018-07-15T09:47:03.263Z,1007.06
2018-07-15T09:48:03.267Z,1007.14
2018-07-15T09:49:03.270Z,1007.15
2018-07-15T09:50:03.306Z,1007.07
2018-07-15T09:51:03.267Z,1007.05
2018-07-15T09:52:03.365Z,1007.05
2018-07-15T09:53:03.313Z,1007.01
2018-07-15T09:54:03.426Z,1007.03
2018-07-15T09:55:03.363Z,1007.03
2018-07-15T09:56:03.375Z,1006.99
2018-07-15T09:57:03.382Z,1007.00
2018-07-15T09:58:03.454Z,1006.95
2018-07-15T09:59:03.415Z,1006.96
2018-07-15T10:00:03.453Z,1006.97
2018-07-15T10:01:03.386Z,1006.95
2018-07-15T10:02:03.435Z,1006.96
2018-07-15T10:03:03.438Z,1006.97
2018-07-15T10:04:03.468Z,1007.00
2018-07-15T10:05:03.390Z,1006.96
2018-07-15T10:06:03.390Z,1006.93
2018-07-15T10:07:03.388Z,1006.94
2018-07-15T10:08:03.392Z,1006.94
2018-07-15T10:09:03.459Z,1006.97
2018-07-15T10:10:03.344Z,1006.93
2018-07-15T10:11:03.331Z,1006.87
2018-07-15T10:12:03.368Z,1006.90
2018-07-15T10:13:03.427Z,1006.96
2018-07-15T10:14:03.434Z,1006.89
2018-07-15T10:15:03.477Z,1006.89
2018-07-15T10:16:03.405Z,1006.92
2018-07-15T10:17:03.446Z,1006.86
2018-07-15T10:18:03.408Z,1006.80
2018-07-15T10:19:03.486Z,1006.78
2018-07-15T10:20:03.435Z,1006.75
2018-07-15T10:21:03.355Z,1006.77
2018-07-15T10:22:03.464Z,1006.75
2018-07-15T10:23:03.438Z,1006.74
2018-07-15T10:24:03.442Z,1006.72
2018-07-15T10:25:03.468Z,1006.75
2018-07-15T10:26:03.438Z,1006.70
2018-07-15T10:27:03.382Z,1006.73
2018-07-15T10:28:03.374Z,1006.74
2018-07-15T10:29:03.444Z,1006.70
2018-07-15T10:30:03.373Z,1006.70
2018-07-15T10:31:03.445Z,1006.71
2018-07-15T10:32:03.375Z,1006.71
2018-07-15T10:33:03.461Z,1006.71
2018-07-15T10:34:03.446Z,1006.72
2018-07-15T10:35:03.443Z,1006.74
2018-07-15T10:36:03.405Z,1006.72
2018-07-15T10:37:03.384Z,1006.73
2018-07-15T10:38:03.406Z,1006.70
2018-07-15T10:39:03.477Z,1006.71
2018-07-15T10:40:03.448Z,1006.72
2018-07-15T10:41:03.489Z,1006.68
2018-07-15T10:42:03.387Z,1006.70
2018-07-15T10:43:03.449Z,1006.69
2018-07-15T10:44:03.449Z,1006.66
2018-07-15T10:45:03.420Z,1006.65
2018-07-15T10:46:03.449Z,1006.65
2018-07-15T10:47:03.372Z,1006.60
2018-07-15T10:48:03.414Z,1006.67
2018-07-15T10:49:03.403Z,1006.60
2018-07-15T10:50:03.491Z,1006.62
2018-07-15T10:51:03.482Z,1006.57
2018-07-15T10:52:03.489Z,1006.57
2018-07-15T10:53:03.411Z,1006.57
2018-07-15T10:54:03.373Z,1006.56
2018-07-15T10:55:03.409Z,1006.57
2018-07-15T10:56:03.359Z,1006.58
2018-07-15T10:57:03.411Z,1006.56
2018-07-15T10:58:03.451Z,1006.57
2018-07-15T10:59:03.365Z,1006.51
2018-07-15T11:00:03.379Z,1006.49
2018-07-15T11:01:03.418Z,1006.51
2018-07-15T11:02:03.393Z,1006.45
2018-07-15T11:03:03.416Z,1006.46
2018-07-15T11:04:03.451Z,1006.47
2018-07-15T11:05:03.374Z,1006.43
2018-07-15T11:06:03.331Z,1006.44
2018-07-15T11:07:03.413Z,1006.44
2018-07-15T11:08:03.388Z,1006.32
2018-07-15T11:09:03.385Z,1006.34
2018-07-15T11:10:03.421Z,1006.32
2018-07-15T11:11:03.345Z,1006.30
2018-07-15T11:12:03.453Z,1006.33
2018-07-15T11:13:03.437Z,1006.32
2018-07-15T11:14:03.402Z,1006.34
2018-07-15T11:15:03.465Z,1006.38
2018-07-15T11:16:03.277Z,1006.29
2018-07-15T11:17:03.284Z,1006.29
2018-07-15T11:18:03.315Z,1006.30
2018-07-15T11:19:03.442Z,1006.29
2018-07-15T11:20:03.368Z,1006.31
2018-07-15T11:21:03.278Z,1006.29
2018-07-15T11:22:03.281Z,1006.28
2018-07-15T11:23:03.281Z,1006.29
2018-07-15T11:24:03.282Z,1006.23
2018-07-15T11:25:03.389Z,1006.23
2018-07-15T11:26:03.484Z,1006.23
2018-07-15T11:27:03.425Z,1006.21
2018-07-15T11:28:03.413Z,1006.19
2018-07-15T11:29:03.475Z,1006.24
2018-07-15T11:30:03.414Z,1006.21
2018-07-15T11:31:03.621Z,1006.23
2018-07-15T11:32:03.415Z,1006.25
2018-07-15T11:33:03.418Z,1006.22
2018-07-15T11:34:03.482Z,1006.21
2018-07-15T11:35:03.483Z,1006.19
2018-07-15T11:36:03.445Z,1006.22
2018-07-15T11:37:03.527Z,1006.18
2018-07-15T11:38:03.470Z,1006.21
2018-07-15T11:39:03.506Z,1006.19
2018-07-15T11:40:03.456Z,1006.21
2018-07-15T11:41:03.493Z,1006.17
2018-07-15T11:42:03.526Z,1006.15
2018-07-15T11:43:03.462Z,1006.14
2018-07-15T11:44:03.412Z,1006.14
2018-07-15T11:45:03.446Z,1006.12
2018-07-15T11:46:03.489Z,1006.07
2018-07-15T11:47:03.535Z,1006.08
2018-07-15T11:48:03.479Z,1006.08
2018-07-15T11:49:03.519Z,1006.01
2018-07-15T11:50:03.458Z,1006.04
2018-07-15T11:51:03.434Z,1006.02
2018-07-15T11:52:03.393Z,1006.02
2018-07-15T11:53:03.526Z,1006.00
2018-07-15T11:54:03.439Z,1005.98
2018-07-15T11:55:03.473Z,1006.01
2018-07-15T11:56:03.480Z,1006.00
2018-07-15T11:57:03.499Z,1005.98
2018-07-15T11:58:03.473Z,1005.89
2018-07-15T11:59:03.441Z,1005.89
2018-07-15T12:00:03.468Z,1005.85
2018-07-15T12:01:03.421Z,1005.83
2018-07-15T12:02:03.604Z,1005.87
2018-07-15T12:03:03.479Z,1005.83
2018-07-15T12:04:03.522Z,1005.84
2018-07-15T12:05:03.409Z,1005.82
2018-07-15T12:06:03.401Z,1005.80
2018-07-15T12:07:03.440Z,1005.77